createdAt,value
2023-01-15T00:00:48.243Z,77.2
2023-01-15T00:05:47.049Z,77.2
2023-01-15T00:10:47.057Z,77.3
2023-01-15T00:15:47.284Z,77.2
2023-01-15T00:20:47.124Z,77.1
2023-01-15T00:25:48.106Z,77.2
2023-01-15T00:30:46.977Z,77.1
2023-01-15T00:35:47.027Z,77.0
2023-01-15T00:40:46.890Z,77.0
2023-01-15T00:45:51.215Z,76.9
2023-01-15T00:50:46.863Z,76.9
2023-01-15T00:55:48.474Z,76.8
2023-01-15T01:00:51.299Z,76.7
2023-01-15T01:05:46.820Z,76.6
2023-01-15T01:10:46.937Z,76.5
2023-01-15T01:15:46.971Z,76.4
2023-01-15T01:20:49.999Z,76.4
2023-01-15T01:25:46.801Z,76.5
2023-01-15T01:30:46.770Z,76.4
2023-01-15T01:35:46.814Z,76.4
2023-01-15T01:40:46.766Z,76.5
2023-01-15T01:45:46.929Z,76.5
2023-01-15T01:50:46.739Z,76.4
2023-01-15T01:55:46.754Z,76.4
2023-01-15T02:00:47.032Z,76.3
2023-01-15T02:05:46.839Z,76.5
2023-01-15T02:10:46.737Z,76.3
2023-01-15T02:15:46.720Z,76.1
2023-01-15T02:20:46.700Z,75.9
2023-01-15T02:25:46.717Z,75.6
2023-01-15T02:30:47.085Z,75.4
2023-01-15T02:35:46.803Z,75.4
2023-01-15T02:40:46.701Z,75.2
2023-01-15T02:45:47.031Z,75.1
2023-01-15T02:50:46.690Z,75.1
2023-01-15T02:55:46.796Z,75.1
2023-01-15T03:00:46.610Z,74.9
2023-01-15T03:05:46.699Z,74.7
2023-01-15T03:10:46.703Z,74.7
2023-01-15T03:15:46.575Z,74.7
2023-01-15T03:20:46.828Z,74.5
2023-01-15T03:25:46.770Z,74.2
2023-01-15T03:30:47.022Z,74.4
2023-01-15T03:35:46.754Z,74.2
2023-01-15T03:40:46.800Z,74.2
2023-01-15T03:45:47.169Z,73.9
2023-01-15T03:50:46.483Z,73.9
2023-01-15T03:55:46.652Z,73.7
2023-01-15T04:00:46.699Z,73.8
2023-01-15T04:05:46.637Z,73.8
2023-01-15T04:10:46.525Z,73.8
2023-01-15T04:15:46.873Z,73.9
2023-01-15T04:20:46.577Z,73.9
2023-01-15T04:25:46.437Z,74.0
2023-01-15T04:30:46.869Z,73.8
2023-01-15T04:35:47.753Z,73.9
2023-01-15T04:40:46.469Z,73.9
2023-01-15T04:45:46.813Z,73.8
2023-01-15T04:50:46.605Z,73.8
2023-01-15T04:55:46.509Z,73.8
2023-01-15T05:00:46.409Z,73.7
2023-01-15T05:05:46.760Z,73.5
2023-01-15T05:10:46.544Z,73.6
2023-01-15T05:15:46.691Z,73.6
2023-01-15T05:20:46.355Z,73.5
2023-01-15T05:25:46.461Z,73.5
2023-01-15T05:30:46.651Z,73.2
2023-01-15T05:35:46.361Z,73.3
2023-01-15T05:40:46.318Z,73.1
2023-01-15T05:45:46.365Z,73.2
2023-01-15T05:50:46.348Z,73.1
2023-01-15T05:55:46.527Z,72.8
2023-01-15T06:00:46.286Z,72.6
2023-01-15T06:05:46.317Z,72.5
2023-01-15T06:10:46.469Z,72.3
2023-01-15T06:15:46.293Z,72.3
2023-01-15T06:20:46.325Z,72.3
2023-01-15T06:25:46.429Z,72.2
2023-01-15T06:30:46.283Z,72.0
2023-01-15T06:35:46.222Z,71.0
2023-01-15T06:40:46.570Z,71.8
2023-01-15T06:45:46.491Z,71.4
2023-01-15T06:50:46.452Z,71.5
2023-01-15T06:55:46.421Z,71.4
2023-01-15T07:00:46.501Z,71.5
2023-01-15T07:05:46.578Z,71.4
2023-01-15T07:10:46.458Z,71.3
2023-01-15T07:15:46.153Z,71.4
2023-01-15T07:20:46.300Z,71.3
2023-01-15T07:25:46.139Z,71.0
2023-01-15T07:30:46.161Z,71.0
2023-01-15T07:35:46.489Z,70.9
2023-01-15T07:40:47.255Z,70.7
2023-01-15T07:45:46.422Z,70.7
2023-01-15T07:50:46.126Z,70.6
2023-01-15T07:55:46.179Z,70.6
2023-01-15T08:00:46.224Z,70.3
2023-01-15T08:05:46.266Z,70.3
2023-01-15T08:10:46.135Z,70.3
2023-01-15T08:15:48.438Z,70.2
2023-01-15T08:20:49.657Z,69.9
2023-01-15T08:25:49.447Z,69.8
2023-01-15T08:30:47.338Z,69.7
2023-01-15T08:35:46.178Z,69.4
2023-01-15T08:40:52.420Z,69.3
2023-01-15T08:45:46.201Z,69.0
2023-01-15T08:50:46.043Z,68.7
2023-01-15T08:55:46.028Z,68.8
2023-01-15T09:00:46.286Z,68.8
2023-01-15T09:05:45.990Z,68.8
2023-01-15T09:10:46.026Z,68.6
2023-01-15T09:15:46.343Z,68.8
2023-01-15T09:20:46.098Z,68.6
2023-01-15T09:25:46.129Z,68.2
2023-01-15T09:30:46.197Z,68.2
2023-01-15T09:35:45.968Z,68.2
2023-01-15T09:40:46.008Z,68.2
2023-01-15T09:45:46.332Z,68.0
2023-01-15T09:50:46.239Z,68.0
2023-01-15T09:55:45.900Z,67.8
2023-01-15T10:00:45.939Z,67.8
2023-01-15T10:05:46.748Z,67.9
2023-01-15T10:10:46.895Z,68.0
2023-01-15T10:15:46.043Z,67.7
2023-01-15T10:20:45.885Z,67.6
2023-01-15T10:25:46.099Z,67.8
2023-01-15T10:30:46.104Z,67.6
2023-01-15T10:35:45.925Z,67.7
2023-01-15T10:40:46.077Z,67.8
2023-01-15T10:45:45.822Z,67.8
2023-01-15T10:50:45.791Z,67.9
2023-01-15T10:55:45.944Z,68.1
2023-01-15T11:00:45.769Z,68.2
2023-01-15T11:05:46.459Z,68.3
2023-01-15T11:10:46.534Z,68.4
2023-01-15T11:15:46.642Z,68.6
2023-01-15T11:20:45.835Z,68.6
2023-01-15T11:25:45.759Z,68.7
2023-01-15T11:30:46.136Z,68.8
2023-01-15T11:35:46.399Z,68.9
2023-01-15T11:40:47.747Z,69.0
2023-01-15T11:45:45.763Z,69.0
2023-01-15T11:50:45.779Z,69.0
2023-01-15T11:55:45.862Z,68.9
2023-01-15T12:00:45.680Z,69.0
2023-01-15T12:05:45.727Z,68.9
2023-01-15T12:10:45.899Z,69.0
2023-01-15T12:15:46.468Z,69.0
2023-01-15T12:20:45.693Z,69.0
2023-01-15T12:25:45.793Z,69.0
2023-01-15T12:30:45.796Z,69.0
2023-01-15T12:35:45.730Z,69.0
2023-01-15T12:40:45.628Z,69.0
2023-01-15T12:45:45.810Z,69.0
2023-01-15T12:50:45.750Z,69.0
2023-01-15T12:55:45.558Z,69.0
2023-01-15T13:00:45.881Z,69.1
2023-01-15T13:10:45.869Z,69.3
2023-01-15T13:15:45.976Z,69.3
2023-01-15T13:20:45.784Z,69.3
2023-01-15T13:25:45.911Z,69.4
2023-01-15T13:30:47.724Z,69.5
2023-01-15T13:35:45.894Z,69.6
2023-01-15T13:40:45.626Z,69.6
2023-01-15T13:45:45.778Z,69.7
2023-01-15T13:50:45.515Z,69.7
2023-01-15T13:55:45.807Z,69.8
2023-01-15T14:00:46.383Z,69.8
2023-01-15T14:05:45.875Z,69.9
2023-01-15T14:20:45.669Z,69.8
2023-01-15T14:25:45.611Z,69.8
2023-01-15T14:30:45.535Z,69.8
2023-01-15T14:35:45.557Z,69.9
2023-01-15T14:40:45.699Z,69.9
2023-01-15T14:45:45.682Z,69.9
2023-01-15T14:50:45.670Z,69.9
2023-01-15T14:55:45.429Z,69.9
2023-01-15T15:00:45.481Z,69.9
2023-01-15T15:15:50.667Z,70.0
2023-01-15T15:26:23.846Z,70.1
